createdAt,value
2018-12-24T00:00:06.292Z,4.40
2018-12-24T00:02:34.635Z,4.80
2018-12-24T00:05:03.013Z,3.60
2018-12-24T00:07:31.392Z,4.27
2018-12-24T00:09:59.676Z,4.23
2018-12-24T00:12:27.949Z,4.13
2018-12-24T00:14:56.283Z,3.80
2018-12-24T00:17:24.581Z,4.03
2018-12-24T00:19:52.856Z,4.60
2018-12-24T00:22:21.177Z,4.00
2018-12-24T00:24:49.475Z,4.43
2018-12-24T00:27:17.762Z,4.50
2018-12-24T00:29:46.065Z,4.50
2018-12-24T00:32:14.407Z,4.27
2018-12-24T00:34:42.677Z,3.97
2018-12-24T00:37:10.962Z,4.43
2018-12-24T00:39:39.244Z,3.67
2018-12-24T00:42:15.611Z,3.33
2018-12-24T00:44:37.535Z,3.30
2018-12-24T00:47:05.845Z,3.40
2018-12-24T00:49:34.146Z,3.73
2018-12-24T00:52:02.415Z,4.30
2018-12-24T00:54:30.700Z,4.80
2018-12-24T00:56:59.236Z,6.47
2018-12-24T00:59:27.520Z,6.33
2018-12-24T01:01:55.843Z,6.67
2018-12-24T01:04:24.157Z,6.47
2018-12-24T01:06:52.452Z,6.67
2018-12-24T01:09:20.732Z,6.30
2018-12-24T01:11:49.040Z,6.33
2018-12-24T01:14:17.322Z,5.80
2018-12-24T01:16:45.608Z,5.80
2018-12-24T01:19:13.925Z,5.67
2018-12-24T01:21:42.247Z,5.00
2018-12-24T01:24:10.549Z,4.80
2018-12-24T01:26:38.829Z,4.97
2018-12-24T01:29:07.148Z,3.90
2018-12-24T01:31:35.452Z,3.80
2018-12-24T01:34:03.729Z,4.00
2018-12-24T01:36:32.053Z,4.20
2018-12-24T01:39:00.348Z,4.07
2018-12-24T01:41:28.671Z,4.00
2018-12-24T01:43:57.016Z,4.10
2018-12-24T01:46:25.413Z,4.27
2018-12-24T01:48:53.754Z,4.00
2018-12-24T01:51:22.025Z,4.00
2018-12-24T01:53:50.334Z,3.93
2018-12-24T01:56:18.654Z,3.70
2018-12-24T01:58:46.920Z,4.00
2018-12-24T02:01:15.243Z,3.73
2018-12-24T02:03:43.508Z,3.77
2018-12-24T02:06:11.793Z,3.73
2018-12-24T02:08:40.109Z,3.73
2018-12-24T02:11:08.468Z,3.70
2018-12-24T02:13:36.785Z,3.50
2018-12-24T02:16:05.057Z,4.23
2018-12-24T02:18:33.394Z,4.27
2018-12-24T02:21:01.667Z,5.07
2018-12-24T02:23:29.984Z,4.60
2018-12-24T02:25:58.269Z,4.83
2018-12-24T02:28:26.546Z,5.33
2018-12-24T02:30:54.910Z,5.73
2018-12-24T02:33:24.115Z,6.00
2018-12-24T02:35:52.438Z,7.13
2018-12-24T02:38:21.820Z,7.27
2018-12-24T02:40:50.112Z,10.03
2018-12-24T02:43:18.404Z,10.00
2018-12-24T02:45:46.728Z,10.20
2018-12-24T02:48:15.018Z,11.13
2018-12-24T02:50:43.344Z,10.70
2018-12-24T02:53:11.712Z,10.43
2018-12-24T02:55:40.025Z,9.67
2018-12-24T02:58:08.345Z,10.40
2018-12-24T03:00:36.652Z,9.97
2018-12-24T03:03:04.974Z,10.07
2018-12-24T03:05:33.312Z,9.50
2018-12-24T03:08:01.600Z,9.77
2018-12-24T03:10:29.888Z,9.90
2018-12-24T03:13:02.796Z,11.40
2018-12-24T03:15:28.177Z,11.67
2018-12-24T03:17:56.501Z,11.10
2018-12-24T03:20:24.848Z,12.03
2018-12-24T03:22:53.162Z,12.30
2018-12-24T03:25:21.503Z,11.93
2018-12-24T03:27:49.822Z,10.20
2018-12-24T03:30:18.215Z,10.80
2018-12-24T03:32:46.653Z,10.77
2018-12-24T03:35:15.009Z,10.07
2018-12-24T03:37:43.479Z,10.83
2018-12-24T03:40:12.697Z,11.27
2018-12-24T03:42:41.001Z,12.50
2018-12-24T03:45:09.330Z,11.63
2018-12-24T03:47:37.631Z,9.20
2018-12-24T03:50:05.963Z,8.97
2018-12-24T03:52:34.278Z,8.70
2018-12-24T03:55:02.600Z,8.60
2018-12-24T03:57:30.889Z,7.77
2018-12-24T03:59:59.201Z,8.50
2018-12-24T04:02:27.586Z,6.73
2018-12-24T04:04:55.904Z,7.43
2018-12-24T04:07:24.291Z,5.73
2018-12-24T04:09:52.673Z,6.20
2018-12-24T04:12:21.024Z,5.27
2018-12-24T04:14:49.310Z,5.60
2018-12-24T04:17:17.582Z,4.60
2018-12-24T04:19:45.876Z,4.53
2018-12-24T04:22:14.156Z,4.90
2018-12-24T04:24:42.466Z,4.30
2018-12-24T04:27:10.815Z,3.40
2018-12-24T04:29:39.123Z,3.00
2018-12-24T04:32:07.422Z,3.10
2018-12-24T04:34:35.705Z,3.20
2018-12-24T04:37:04.030Z,3.00
2018-12-24T04:39:32.398Z,3.20
2018-12-24T04:42:00.689Z,3.30
2018-12-24T04:44:28.955Z,3.10
2018-12-24T04:46:57.268Z,3.20
2018-12-24T04:49:25.589Z,3.03
2018-12-24T04:51:53.861Z,3.10
2018-12-24T04:54:22.186Z,3.90
2018-12-24T04:56:50.533Z,3.50
2018-12-24T04:59:18.834Z,3.27
2018-12-24T05:01:47.205Z,2.93
2018-12-24T05:04:15.525Z,3.30
2018-12-24T05:06:43.830Z,3.40
2018-12-24T05:09:12.109Z,2.70
2018-12-24T05:11:40.427Z,3.87
2018-12-24T05:14:08.709Z,3.40
2018-12-24T05:16:37.017Z,3.40
2018-12-24T05:19:05.296Z,3.80
2018-12-24T05:21:33.583Z,3.50
2018-12-24T05:24:01.860Z,3.10
2018-12-24T05:26:30.148Z,3.53
2018-12-24T05:28:58.424Z,3.00
2018-12-24T05:31:26.730Z,3.33
2018-12-24T05:33:55.030Z,3.47
2018-12-24T05:36:23.341Z,3.10
2018-12-24T05:38:51.626Z,2.87
2018-12-24T05:41:19.909Z,3.67
2018-12-24T05:43:49.526Z,3.20
2018-12-24T05:46:19.117Z,3.40
2018-12-24T05:48:47.420Z,3.10
2018-12-24T05:51:15.729Z,3.10
2018-12-24T05:53:44.054Z,3.40
2018-12-24T05:56:12.320Z,3.53
2018-12-24T05:58:40.600Z,3.43
2018-12-24T06:01:08.922Z,3.57
2018-12-24T06:03:37.217Z,3.37
2018-12-24T06:06:05.496Z,3.27
2018-12-24T06:08:33.781Z,3.40
2018-12-24T06:11:02.058Z,3.27
2018-12-24T06:13:30.369Z,2.43
2018-12-24T06:15:58.683Z,2.50
2018-12-24T06:18:27.062Z,2.83
2018-12-24T06:20:55.348Z,2.93
2018-12-24T06:23:23.626Z,3.45
2018-12-24T06:25:51.953Z,3.67
2018-12-24T06:28:20.229Z,3.10
2018-12-24T06:30:48.642Z,3.30
2018-12-24T06:33:17.021Z,2.80
2018-12-24T06:35:45.331Z,2.80
2018-12-24T06:38:13.649Z,2.70
2018-12-24T06:40:41.941Z,2.53
2018-12-24T06:43:10.257Z,2.87
2018-12-24T06:45:38.561Z,2.60
2018-12-24T06:48:06.873Z,2.67
2018-12-24T06:50:35.173Z,2.43
2018-12-24T06:53:03.504Z,2.70
2018-12-24T06:55:31.873Z,2.90
2018-12-24T06:58:00.164Z,2.50
2018-12-24T07:00:28.465Z,2.27
2018-12-24T07:02:56.742Z,2.40
2018-12-24T07:05:25.084Z,2.73
2018-12-24T07:07:53.384Z,2.27
2018-12-24T07:10:21.689Z,2.60
2018-12-24T07:12:50.015Z,2.60
2018-12-24T07:15:18.293Z,2.60
2018-12-24T07:17:47.548Z,2.70
2018-12-24T07:20:16.801Z,2.43
2018-12-24T07:22:45.111Z,3.27
2018-12-24T07:25:13.396Z,2.50
2018-12-24T07:27:41.797Z,2.37
2018-12-24T07:30:11.022Z,2.43
2018-12-24T07:32:39.332Z,2.13
2018-12-24T07:35:07.617Z,2.70
2018-12-24T07:37:35.929Z,2.70
2018-12-24T07:40:04.235Z,2.83
2018-12-24T07:42:32.573Z,2.30
2018-12-24T07:45:00.845Z,2.60
2018-12-24T07:47:30.042Z,2.50
2018-12-24T07:49:58.325Z,2.10
2018-12-24T07:52:26.685Z,1.67
2018-12-24T07:54:54.997Z,1.80
2018-12-24T07:57:23.277Z,2.40
2018-12-24T07:59:51.621Z,1.75
2018-12-24T08:02:19.897Z,2.00
2018-12-24T08:04:48.179Z,2.00
2018-12-24T08:07:16.487Z,2.60
2018-12-24T08:09:44.860Z,1.90
2018-12-24T08:12:13.140Z,1.87
2018-12-24T08:14:41.458Z,1.90
2018-12-24T08:17:09.804Z,1.57
2018-12-24T08:19:38.086Z,1.57
2018-12-24T08:22:06.376Z,1.50
2018-12-24T08:24:34.651Z,1.70
2018-12-24T08:27:03.013Z,1.50
2018-12-24T08:29:31.386Z,3.00
2018-12-24T08:31:59.759Z,2.00
2018-12-24T08:34:28.067Z,1.53
2018-12-24T08:36:56.365Z,2.50
2018-12-24T08:39:24.653Z,2.00
2018-12-24T08:41:52.966Z,1.97
2018-12-24T08:44:21.244Z,2.23
2018-12-24T08:46:49.516Z,1.70
2018-12-24T08:49:17.833Z,2.60
2018-12-24T08:51:46.141Z,2.17
2018-12-24T08:54:14.421Z,2.20
2018-12-24T08:56:42.751Z,2.27
2018-12-24T08:59:11.029Z,2.27
2018-12-24T09:01:39.320Z,1.80
2018-12-24T09:04:07.593Z,2.90
2018-12-24T09:06:36.836Z,2.80
2018-12-24T09:09:05.893Z,2.73
2018-12-24T09:11:34.176Z,3.10
2018-12-24T09:14:02.469Z,3.10
2018-12-24T09:16:30.756Z,2.57
2018-12-24T09:18:59.045Z,2.80
2018-12-24T09:21:27.320Z,2.90
2018-12-24T09:23:55.640Z,2.33
2018-12-24T09:26:23.996Z,2.63
2018-12-24T09:28:53.157Z,3.00
2018-12-24T09:31:21.433Z,2.90
2018-12-24T09:33:49.721Z,2.70
2018-12-24T09:36:18.948Z,2.70
2018-12-24T09:38:47.258Z,2.90
2018-12-24T09:41:15.565Z,3.23
2018-12-24T09:43:43.844Z,2.93
2018-12-24T09:46:12.157Z,3.10
2018-12-24T09:48:40.464Z,3.10
2018-12-24T09:51:08.745Z,3.10
2018-12-24T09:53:37.130Z,3.40
2018-12-24T09:56:05.465Z,3.10
2018-12-24T09:58:33.755Z,2.93
2018-12-24T10:01:02.145Z,3.17
2018-12-24T10:03:30.560Z,3.10
2018-12-24T10:05:59.949Z,3.30
2018-12-24T10:08:28.224Z,4.00
2018-12-24T10:10:56.551Z,2.87
2018-12-24T10:13:24.828Z,3.70
2018-12-24T10:15:53.237Z,3.30
2018-12-24T10:18:21.545Z,2.90
2018-12-24T10:20:49.820Z,3.30
2018-12-24T10:23:18.146Z,3.20
2018-12-24T10:25:47.304Z,2.97
2018-12-24T10:28:15.665Z,2.83
2018-12-24T10:30:43.969Z,2.90
2018-12-24T10:33:13.713Z,2.70
2018-12-24T10:35:42.005Z,2.60
2018-12-24T10:38:10.281Z,2.97
2018-12-24T10:40:38.958Z,2.67
2018-12-24T10:43:07.292Z,3.00
2018-12-24T10:45:35.565Z,2.60
2018-12-24T10:48:03.845Z,3.07
2018-12-24T10:50:32.166Z,3.23
2018-12-24T10:53:00.481Z,3.53
2018-12-24T10:55:28.787Z,2.63
2018-12-24T10:57:57.093Z,2.90
2018-12-24T11:00:25.371Z,2.77
2018-12-24T11:02:53.657Z,2.43
2018-12-24T11:05:21.929Z,2.90
2018-12-24T11:07:50.238Z,3.50
2018-12-24T11:10:18.509Z,3.93
2018-12-24T11:12:46.825Z,3.47
2018-12-24T11:15:15.220Z,3.83
2018-12-24T11:17:43.500Z,2.97
2018-12-24T11:20:12.745Z,3.50
2018-12-24T11:22:41.053Z,3.47
2018-12-24T11:25:09.413Z,3.20
2018-12-24T11:27:37.722Z,3.27
2018-12-24T11:30:06.393Z,3.70
2018-12-24T11:32:34.668Z,2.67
2018-12-24T11:35:02.957Z,3.43
2018-12-24T11:37:31.262Z,3.60
2018-12-24T11:39:59.551Z,3.50
2018-12-24T11:42:27.824Z,4.00
2018-12-24T11:44:56.095Z,3.53
2018-12-24T11:47:24.433Z,4.80
2018-12-24T11:49:52.705Z,3.97
2018-12-24T11:52:20.988Z,4.80
2018-12-24T11:54:49.276Z,3.50
2018-12-24T11:57:17.597Z,4.00
2018-12-24T11:59:46.829Z,4.87
2018-12-24T12:02:15.112Z,3.83
2018-12-24T12:04:43.413Z,3.33
2018-12-24T12:07:11.725Z,3.77
2018-12-24T12:09:40.046Z,3.90
2018-12-24T12:12:08.466Z,3.20
2018-12-24T12:14:36.742Z,3.90
2018-12-24T12:17:05.045Z,4.10
2018-12-24T12:19:33.328Z,3.70
2018-12-24T12:22:01.617Z,3.87
2018-12-24T12:24:30.853Z,3.80
2018-12-24T12:26:59.161Z,4.33
2018-12-24T12:29:27.453Z,4.00
2018-12-24T12:31:55.762Z,3.93
2018-12-24T12:34:24.079Z,3.37
2018-12-24T12:36:52.495Z,4.60
2018-12-24T12:39:20.861Z,4.47
2018-12-24T12:41:49.409Z,5.23
2018-12-24T12:44:17.709Z,4.43
2018-12-24T12:46:45.989Z,4.37
2018-12-24T12:49:14.401Z,3.33
2018-12-24T12:51:42.762Z,3.90
2018-12-24T12:54:11.090Z,4.23
2018-12-24T12:56:39.436Z,3.80
2018-12-24T12:59:07.720Z,4.00
2018-12-24T13:01:35.996Z,5.00
2018-12-24T13:04:04.306Z,3.83
2018-12-24T13:06:32.617Z,3.77
2018-12-24T13:09:00.918Z,2.93
2018-12-24T13:11:29.225Z,2.80
2018-12-24T13:13:58.429Z,3.00
2018-12-24T13:16:26.768Z,2.90
2018-12-24T13:18:55.132Z,3.20
2018-12-24T13:21:23.492Z,4.17
2018-12-24T13:23:51.811Z,3.87
2018-12-24T13:26:20.202Z,3.30
2018-12-24T13:28:49.389Z,2.90
2018-12-24T13:31:17.664Z,3.30
2018-12-24T13:33:45.957Z,3.40
2018-12-24T13:36:14.268Z,3.00
2018-12-24T13:38:42.556Z,3.63
2018-12-24T13:41:10.905Z,2.80
2018-12-24T13:43:39.287Z,3.87
2018-12-24T13:46:08.177Z,3.80
2018-12-24T13:48:36.828Z,3.00
2018-12-24T13:51:05.113Z,3.40
2018-12-24T13:54:14.493Z,2.93
2018-12-24T13:56:42.689Z,3.80
2018-12-24T13:59:10.864Z,3.90
2018-12-24T14:01:39.080Z,3.67
2018-12-24T14:04:07.298Z,4.27
2018-12-24T14:06:35.540Z,4.20
2018-12-24T14:09:05.248Z,4.60
2018-12-24T14:11:33.473Z,3.90
2018-12-24T14:14:01.646Z,3.60
2018-12-24T14:16:29.853Z,3.70
2018-12-24T14:18:58.067Z,3.87
2018-12-24T14:21:26.228Z,4.60
2018-12-24T14:23:54.441Z,3.40
2018-12-24T14:26:22.638Z,3.60
2018-12-24T14:28:51.013Z,3.77
2018-12-24T14:31:19.192Z,3.60
2018-12-24T14:33:47.436Z,3.33
2018-12-24T14:36:15.645Z,3.57
2018-12-24T14:38:43.853Z,3.80
2018-12-24T14:41:12.020Z,3.53
2018-12-24T14:43:40.192Z,3.50
2018-12-24T14:46:08.377Z,3.67
2018-12-24T14:48:36.548Z,4.13
2018-12-24T14:51:04.761Z,3.70
2018-12-24T14:53:32.960Z,3.17
2018-12-24T14:56:01.140Z,4.00
2018-12-24T14:58:30.526Z,3.27
2018-12-24T15:00:58.731Z,3.30
2018-12-24T15:03:26.988Z,3.50
2018-12-24T15:05:55.156Z,3.70
2018-12-24T15:08:23.348Z,3.13
2018-12-24T15:10:51.549Z,3.53
2018-12-24T15:13:19.756Z,3.00
2018-12-24T15:15:47.970Z,3.17
2018-12-24T15:18:16.177Z,3.20
2018-12-24T15:20:44.353Z,3.73
2018-12-24T15:23:12.581Z,3.20
2018-12-24T15:25:40.781Z,3.90
2018-12-24T15:28:08.989Z,3.40
2018-12-24T15:30:37.229Z,4.07
2018-12-24T15:33:05.430Z,3.30
2018-12-24T15:35:33.688Z,3.50
2018-12-24T15:38:01.899Z,4.47
2018-12-24T15:40:30.177Z,3.50
2018-12-24T15:42:58.389Z,4.27
2018-12-24T15:45:26.589Z,3.70
2018-12-24T15:47:54.797Z,4.13
2018-12-24T15:50:23.071Z,3.90
2018-12-24T15:52:51.269Z,4.07
2018-12-24T15:55:19.533Z,4.60
2018-12-24T15:57:47.877Z,4.10
2018-12-24T16:00:16.091Z,4.17
2018-12-24T16:02:44.373Z,4.50
2018-12-24T16:05:12.550Z,4.80
2018-12-24T16:07:40.767Z,4.50
2018-12-24T16:10:08.940Z,4.53
2018-12-24T16:12:37.152Z,4.30
2018-12-24T16:15:05.864Z,4.30
2018-12-24T16:17:34.147Z,4.60
2018-12-24T16:20:02.313Z,4.67
2018-12-24T16:22:30.498Z,4.90
2018-12-24T16:24:58.687Z,4.87
2018-12-24T16:27:26.863Z,3.97
2018-12-24T16:29:55.041Z,4.73
2018-12-24T16:32:23.223Z,4.80
2018-12-24T16:34:51.438Z,4.93
2018-12-24T16:37:19.616Z,4.47
2018-12-24T16:39:47.857Z,3.83
2018-12-24T16:42:16.073Z,4.20
2018-12-24T16:44:44.277Z,4.57
2018-12-24T16:47:12.452Z,5.20
2018-12-24T16:49:40.670Z,4.87
2018-12-24T16:52:08.860Z,4.70
2018-12-24T16:54:37.052Z,5.10
2018-12-24T16:57:05.261Z,5.00
2018-12-24T16:59:33.464Z,5.30
2018-12-24T17:02:01.726Z,5.37
2018-12-24T17:04:29.936Z,4.97
2018-12-24T17:06:58.136Z,5.00
2018-12-24T17:09:26.350Z,4.83
2018-12-24T17:11:54.608Z,4.90
2018-12-24T17:14:22.792Z,5.40
2018-12-24T17:16:51.021Z,5.50
2018-12-24T17:19:19.205Z,5.90
2018-12-24T17:21:47.384Z,5.40
2018-12-24T17:24:15.592Z,5.10
2018-12-24T17:26:43.797Z,5.00
2018-12-24T17:29:12.013Z,5.20
2018-12-24T17:31:40.241Z,5.20
2018-12-24T17:34:08.416Z,5.30
2018-12-24T17:36:36.633Z,5.63
2018-12-24T17:39:06.150Z,5.17
2018-12-24T17:41:34.332Z,5.07
2018-12-24T17:44:02.630Z,5.40
2018-12-24T17:46:30.819Z,4.83
2018-12-24T17:48:59.023Z,5.00
2018-12-24T17:51:27.192Z,4.97
2018-12-24T17:53:55.413Z,5.27
2018-12-24T17:56:23.613Z,5.70
2018-12-24T17:58:51.805Z,6.13
2018-12-24T18:01:20.014Z,5.77
2018-12-24T18:03:48.228Z,5.43
2018-12-24T18:06:16.420Z,4.60
2018-12-24T18:08:44.673Z,5.37
2018-12-24T18:11:12.883Z,6.87
2018-12-24T18:13:41.136Z,6.83
2018-12-24T18:16:09.315Z,6.27
2018-12-24T18:18:37.508Z,6.67
2018-12-24T18:21:05.722Z,5.47
2018-12-24T18:23:34.026Z,6.83
2018-12-24T18:26:02.240Z,6.53
2018-12-24T18:28:30.445Z,7.63
2018-12-24T18:30:58.670Z,7.40
2018-12-24T18:33:26.914Z,7.43
2018-12-24T18:35:55.124Z,7.43
2018-12-24T18:38:23.306Z,8.03
2018-12-24T18:40:51.688Z,7.57
2018-12-24T18:43:19.863Z,6.43
2018-12-24T18:45:48.068Z,8.27
2018-12-24T18:48:16.294Z,6.13
2018-12-24T18:50:44.501Z,7.70
2018-12-24T18:53:12.711Z,6.87
2018-12-24T18:55:40.948Z,6.93
2018-12-24T18:58:09.162Z,6.73
2018-12-24T19:00:38.269Z,6.73
2018-12-24T19:03:06.455Z,6.87
2018-12-24T19:05:34.671Z,6.83
2018-12-24T19:08:02.912Z,6.70
2018-12-24T19:10:31.124Z,5.93
2018-12-24T19:12:59.312Z,6.90
2018-12-24T19:15:27.637Z,6.80
2018-12-24T19:17:55.840Z,6.93
2018-12-24T19:20:24.016Z,7.03
2018-12-24T19:22:52.236Z,6.67
2018-12-24T19:25:20.473Z,7.37
2018-12-24T19:27:48.685Z,6.80
2018-12-24T19:30:16.905Z,6.30
2018-12-24T19:32:45.181Z,6.23
2018-12-24T19:35:13.378Z,7.10
2018-12-24T19:37:41.693Z,7.00
2018-12-24T19:40:09.893Z,4.13
2018-12-24T19:42:38.063Z,7.13
2018-12-24T19:45:06.272Z,6.80
2018-12-24T19:47:34.493Z,4.77
2018-12-24T19:50:02.770Z,7.50
2018-12-24T19:52:30.980Z,7.37
2018-12-24T19:54:59.201Z,7.27
2018-12-24T19:57:27.418Z,6.50
2018-12-24T19:59:55.596Z,8.00
2018-12-24T20:02:23.772Z,7.40
2018-12-24T20:04:51.976Z,7.40
2018-12-24T20:07:20.156Z,7.50
2018-12-24T20:09:48.362Z,7.67
2018-12-24T20:12:16.577Z,7.10
2018-12-24T20:14:44.760Z,7.30
2018-12-24T20:17:12.983Z,7.50
2018-12-24T20:19:41.202Z,6.10
2018-12-24T20:22:09.409Z,7.47
2018-12-24T20:24:37.590Z,7.10
2018-12-24T20:27:05.864Z,6.80
2018-12-24T20:29:34.145Z,7.30
2018-12-24T20:32:02.999Z,6.37
2018-12-24T20:34:31.281Z,7.77
2018-12-24T20:36:59.531Z,6.03
2018-12-24T20:39:27.740Z,7.60
2018-12-24T20:41:56.009Z,7.37
2018-12-24T20:44:24.306Z,6.70
2018-12-24T20:46:52.522Z,7.40
2018-12-24T20:49:20.910Z,7.67
2018-12-24T20:51:49.124Z,6.83
2018-12-24T20:54:17.379Z,5.90
2018-12-24T20:56:45.550Z,7.40
2018-12-24T20:59:13.732Z,7.50
2018-12-24T21:01:41.924Z,6.83
2018-12-24T21:04:10.139Z,7.43
2018-12-24T21:06:38.400Z,7.80
2018-12-24T21:09:06.891Z,7.70
2018-12-24T21:11:35.127Z,7.20
2018-12-24T21:14:03.325Z,7.43
2018-12-24T21:16:31.504Z,7.63
2018-12-24T21:18:59.759Z,6.67
2018-12-24T21:21:28.105Z,7.00
2018-12-24T21:23:56.296Z,7.80
2018-12-24T21:26:24.500Z,6.33
2018-12-24T21:28:52.736Z,7.70
2018-12-24T21:31:20.916Z,8.27
2018-12-24T21:33:49.103Z,7.70
2018-12-24T21:36:17.313Z,7.30
2018-12-24T21:38:45.496Z,7.30
2018-12-24T21:41:13.730Z,7.77
2018-12-24T21:43:41.945Z,8.50
2018-12-24T21:46:10.120Z,7.63
2018-12-24T21:48:38.312Z,8.83
2018-12-24T21:51:06.517Z,8.07
2018-12-24T21:53:34.734Z,7.10
2018-12-24T21:56:02.900Z,8.20
2018-12-24T21:58:31.109Z,7.80
2018-12-24T22:00:59.345Z,7.93
2018-12-24T22:03:27.520Z,8.20
2018-12-24T22:05:55.727Z,7.60
2018-12-24T22:08:23.944Z,7.97
2018-12-24T22:10:52.159Z,8.00
2018-12-24T22:13:20.436Z,7.97
2018-12-24T22:15:48.641Z,7.90
2018-12-24T22:18:16.825Z,8.63
2018-12-24T22:20:45.011Z,7.40
2018-12-24T22:23:13.221Z,8.40
2018-12-24T22:25:41.422Z,8.33
2018-12-24T22:28:09.603Z,6.93
2018-12-24T22:30:37.817Z,7.33
2018-12-24T22:33:05.996Z,7.90
2018-12-24T22:35:34.206Z,7.30
2018-12-24T22:38:02.454Z,7.83
2018-12-24T22:40:31.556Z,7.20
2018-12-24T22:42:59.745Z,7.20
2018-12-24T22:45:27.961Z,7.63
2018-12-24T22:47:56.136Z,7.83
2018-12-24T22:50:24.353Z,6.93
2018-12-24T22:52:52.636Z,7.43
2018-12-24T22:55:20.827Z,7.83
2018-12-24T22:57:49.025Z,8.17
2018-12-24T23:00:18.857Z,8.17
2018-12-24T23:02:47.069Z,8.73
2018-12-24T23:05:15.273Z,6.60
2018-12-24T23:07:43.498Z,8.00
2018-12-24T23:10:11.707Z,7.47
2018-12-24T23:12:39.879Z,7.73
2018-12-24T23:15:08.144Z,7.80
2018-12-24T23:17:36.369Z,8.10
2018-12-24T23:20:04.565Z,8.33
2018-12-24T23:22:32.748Z,8.07
2018-12-24T23:25:00.931Z,7.33
2018-12-24T23:27:29.105Z,7.90
2018-12-24T23:29:57.322Z,6.73
2018-12-24T23:32:25.526Z,6.93
2018-12-24T23:34:53.748Z,7.63
2018-12-24T23:37:21.924Z,7.90
2018-12-24T23:39:50.121Z,8.07
2018-12-24T23:42:18.337Z,7.20
2018-12-24T23:44:46.516Z,7.00
2018-12-24T23:47:14.771Z,6.90
2018-12-24T23:49:42.945Z,6.80
2018-12-24T23:52:11.152Z,6.90
2018-12-24T23:54:39.341Z,6.63
2018-12-24T23:57:07.572Z,6.17
2018-12-24T23:59:35.773Z,6.20
